createdAt,value
2019-04-07T00:00:54.247Z,10.93
2019-04-07T00:03:58.587Z,11.01
2019-04-07T00:07:03.554Z,10.93
2019-04-07T00:10:09.771Z,11.01
2019-04-07T00:13:13.701Z,10.96
2019-04-07T00:16:17.864Z,10.94
2019-04-07T00:19:23.107Z,10.84
2019-04-07T00:22:27.140Z,10.90
2019-04-07T00:25:31.011Z,10.95
2019-04-07T00:28:34.843Z,10.95
2019-04-07T00:31:38.752Z,10.91
2019-04-07T00:34:42.754Z,10.78
2019-04-07T00:37:47.223Z,10.69
2019-04-07T00:40:51.097Z,10.71
2019-04-07T00:43:56.171Z,10.72
2019-04-07T00:47:00.915Z,10.69
2019-04-07T00:50:05.496Z,10.70
2019-04-07T00:53:09.836Z,10.70
2019-04-07T00:56:14.642Z,10.68
2019-04-07T00:59:19.651Z,10.67
2019-04-07T01:02:23.523Z,10.59
2019-04-07T01:05:35.467Z,10.51
2019-04-07T01:08:33.541Z,10.38
2019-04-07T01:11:37.519Z,10.40
2019-04-07T01:14:41.752Z,10.34
2019-04-07T01:17:45.899Z,10.20
2019-04-07T01:20:49.955Z,10.14
2019-04-07T01:23:54.562Z,10.13
2019-04-07T01:26:58.982Z,10.10
2019-04-07T01:30:04.681Z,10.09
2019-04-07T01:33:09.573Z,10.07
2019-04-07T01:36:14.039Z,10.05
2019-04-07T01:39:18.321Z,10.03
2019-04-07T01:42:30.209Z,10.00
2019-04-07T01:45:59.919Z,9.98
2019-04-07T01:49:28.786Z,9.86
2019-04-07T01:52:41.592Z,9.77
2019-04-07T01:56:04.551Z,9.67
2019-04-07T01:59:27.279Z,9.46
2019-04-07T02:02:40.146Z,9.43
2019-04-07T02:06:18.886Z,9.30
2019-04-07T02:09:54.555Z,9.22
2019-04-07T02:13:08.673Z,9.23
2019-04-07T02:16:24.623Z,9.21
2019-04-07T02:19:37.371Z,9.21
2019-04-07T02:22:55.006Z,9.14
2019-04-07T02:26:07.260Z,8.99
2019-04-07T02:29:41.600Z,8.92
2019-04-07T02:32:52.495Z,8.91
2019-04-07T02:36:15.697Z,8.95
2019-04-07T02:39:29.406Z,9.04
2019-04-07T02:43:08.521Z,9.14
2019-04-07T02:46:38.233Z,9.12
2019-04-07T02:49:59.626Z,8.99
2019-04-07T02:53:21.560Z,8.90
2019-04-07T02:56:38.063Z,8.89
2019-04-07T02:59:53.431Z,8.96
2019-04-07T03:03:14.598Z,8.93
2019-04-07T03:06:39.427Z,8.92
2019-04-07T03:09:54.753Z,9.00
2019-04-07T03:13:17.609Z,9.02
2019-04-07T03:16:31.145Z,9.00
2019-04-07T03:19:46.893Z,9.02
2019-04-07T03:23:05.981Z,8.99
2019-04-07T03:26:30.034Z,8.92
2019-04-07T03:29:56.723Z,8.82
2019-04-07T03:33:34.857Z,8.82
2019-04-07T03:37:16.925Z,8.80
2019-04-07T03:40:22.220Z,8.80
2019-04-07T03:43:35.863Z,8.83
2019-04-07T03:47:08.825Z,8.79
2019-04-07T03:50:34.922Z,8.77
2019-04-07T03:54:04.178Z,8.86
2019-04-07T03:57:19.583Z,8.88
2019-04-07T04:01:20.916Z,9.01
2019-04-07T04:04:39.636Z,8.94
2019-04-07T04:07:49.489Z,9.01
2019-04-07T04:11:09.602Z,9.02
2019-04-07T04:14:27.334Z,9.05
2019-04-07T04:17:32.604Z,9.08
2019-04-07T04:20:37.259Z,9.10
2019-04-07T04:23:43.030Z,9.09
2019-04-07T04:26:47.633Z,9.15
2019-04-07T04:29:53.405Z,9.15
2019-04-07T04:32:57.840Z,9.18
2019-04-07T04:36:02.766Z,9.16
2019-04-07T04:39:08.342Z,9.24
2019-04-07T04:42:12.145Z,9.20
2019-04-07T04:45:17.881Z,9.17
2019-04-07T04:48:22.442Z,9.21
2019-04-07T04:51:26.562Z,9.27
2019-04-07T04:54:31.727Z,9.29
2019-04-07T04:57:36.297Z,9.31
2019-04-07T05:00:41.396Z,9.29
2019-04-07T05:03:46.243Z,9.27
2019-04-07T05:06:51.458Z,9.27
2019-04-07T05:09:56.788Z,9.26
2019-04-07T05:13:00.759Z,9.24
2019-04-07T05:16:04.990Z,9.29
2019-04-07T05:19:09.813Z,9.27
2019-04-07T05:22:13.851Z,9.34
2019-04-07T05:25:18.448Z,9.30
2019-04-07T05:28:22.796Z,9.25
2019-04-07T05:31:27.377Z,9.26
2019-04-07T05:34:32.193Z,9.30
2019-04-07T05:37:36.006Z,9.39
2019-04-07T05:40:40.033Z,9.52
2019-04-07T05:43:43.996Z,9.51
2019-04-07T05:46:49.789Z,9.62
2019-04-07T05:49:57.456Z,9.66
2019-04-07T05:53:00.313Z,9.78
2019-04-07T05:56:04.450Z,9.90
2019-04-07T05:59:11.554Z,9.93
2019-04-07T06:02:14.401Z,10.01
2019-04-07T06:05:18.630Z,10.17
2019-04-07T06:08:30.354Z,10.12
2019-04-07T06:11:31.916Z,10.16
2019-04-07T06:14:34.774Z,10.22
2019-04-07T06:17:39.204Z,10.25
2019-04-07T06:20:45.592Z,10.27
2019-04-07T06:23:49.595Z,10.26
2019-04-07T06:26:54.326Z,10.37
2019-04-07T06:30:00.065Z,10.43
2019-04-07T06:33:06.964Z,10.54
2019-04-07T06:36:10.243Z,10.52
2019-04-07T06:39:17.395Z,10.59
2019-04-07T06:42:20.864Z,10.57
2019-04-07T06:45:29.363Z,10.70
2019-04-07T06:48:38.032Z,10.72
2019-04-07T06:51:55.481Z,10.83
2019-04-07T06:55:33.064Z,10.91
2019-04-07T06:58:59.157Z,10.93
2019-04-07T07:02:15.552Z,11.03
2019-04-07T07:05:29.178Z,11.17
2019-04-07T07:08:54.071Z,11.33
2019-04-07T07:12:22.912Z,11.25
2019-04-07T07:15:36.112Z,11.31
2019-04-07T07:18:54.710Z,11.59
2019-04-07T07:22:17.426Z,11.81
2019-04-07T07:25:22.561Z,11.92
2019-04-07T07:28:27.340Z,11.85
2019-04-07T07:31:32.152Z,11.85
2019-04-07T07:34:39.925Z,11.85
2019-04-07T07:37:41.895Z,11.84
2019-04-07T07:40:47.788Z,11.82
2019-04-07T07:43:52.383Z,11.90
2019-04-07T07:46:57.099Z,11.94
2019-04-07T07:50:04.788Z,12.04
2019-04-07T07:53:07.965Z,12.31
2019-04-07T07:56:13.156Z,12.38
2019-04-07T07:59:17.898Z,12.73
2019-04-07T08:02:22.313Z,12.77
2019-04-07T08:05:29.890Z,12.83
2019-04-07T08:08:33.082Z,13.08
2019-04-07T08:11:39.930Z,13.36
2019-04-07T08:14:43.798Z,13.50
2019-04-07T08:17:48.578Z,13.52
2019-04-07T08:20:53.329Z,13.47
2019-04-07T08:23:57.883Z,13.52
2019-04-07T08:27:01.906Z,13.70
2019-04-07T08:30:11.759Z,13.77
2019-04-07T08:33:13.626Z,13.98
2019-04-07T08:36:19.407Z,14.18
2019-04-07T08:39:31.180Z,14.36
2019-04-07T08:42:32.673Z,14.47
2019-04-07T08:45:37.091Z,14.58
2019-04-07T08:48:41.065Z,14.65
2019-04-07T08:51:45.955Z,14.86
2019-04-07T08:54:52.186Z,14.99
2019-04-07T08:57:56.196Z,14.78
2019-04-07T09:01:02.174Z,15.08
2019-04-07T09:04:06.728Z,15.01
2019-04-07T09:07:11.032Z,15.05
2019-04-07T09:10:20.691Z,15.37
2019-04-07T09:13:25.465Z,15.52
2019-04-07T09:16:44.719Z,15.56
2019-04-07T09:20:10.551Z,15.59
2019-04-07T09:23:25.678Z,15.69
2019-04-07T09:26:36.597Z,15.83
2019-04-07T09:29:49.787Z,15.50
2019-04-07T09:33:06.098Z,15.40
2019-04-07T09:36:26.590Z,15.33
2019-04-07T09:39:57.096Z,15.23
2019-04-07T09:43:10.308Z,15.73
2019-04-07T09:46:28.911Z,15.79
2019-04-07T09:50:04.579Z,15.79
2019-04-07T09:53:21.487Z,16.00
2019-04-07T09:56:39.461Z,16.19
2019-04-07T10:00:12.661Z,15.73
2019-04-07T10:03:33.136Z,15.43
2019-04-07T10:06:54.638Z,16.42
2019-04-07T10:10:12.981Z,16.52
2019-04-07T10:13:24.075Z,16.52
2019-04-07T10:16:47.318Z,16.36
2019-04-07T10:19:58.811Z,15.97
2019-04-07T10:23:11.710Z,16.38
2019-04-07T10:26:32.599Z,16.38
2019-04-07T10:29:43.869Z,16.29
2019-04-07T10:33:09.581Z,16.49
2019-04-07T10:36:28.903Z,16.56
2019-04-07T10:39:50.592Z,16.85
2019-04-07T10:43:08.489Z,17.06
2019-04-07T10:46:30.843Z,17.30
2019-04-07T10:50:07.049Z,17.30
2019-04-07T10:53:14.644Z,17.15
2019-04-07T10:56:37.690Z,16.98
2019-04-07T10:59:55.735Z,17.00
2019-04-07T11:03:13.546Z,17.16
2019-04-07T11:06:28.406Z,17.22
2019-04-07T11:09:50.415Z,17.21
2019-04-07T11:13:05.026Z,17.13
2019-04-07T11:16:18.696Z,17.28
2019-04-07T11:19:29.309Z,17.13
2019-04-07T11:22:51.298Z,17.09
2019-04-07T11:26:03.530Z,17.44
2019-04-07T11:29:14.448Z,17.97
2019-04-07T11:32:43.491Z,18.20
2019-04-07T11:35:53.917Z,18.47
2019-04-07T11:39:09.003Z,18.40
2019-04-07T11:42:41.582Z,18.21
2019-04-07T11:46:08.843Z,17.85
2019-04-07T11:49:43.484Z,18.07
2019-04-07T11:52:56.275Z,18.42
2019-04-07T11:56:09.893Z,18.47
2019-04-07T11:59:34.913Z,18.05
2019-04-07T12:02:57.542Z,18.39
2019-04-07T12:06:25.378Z,18.49
2019-04-07T12:09:37.515Z,18.37
2019-04-07T12:12:50.093Z,18.19
2019-04-07T12:16:10.550Z,18.10
2019-04-07T12:19:36.963Z,17.93
2019-04-07T12:22:56.153Z,17.88
2019-04-07T12:26:23.565Z,18.71
2019-04-07T12:29:44.869Z,19.11
2019-04-07T12:32:55.252Z,19.09
2019-04-07T12:36:17.274Z,19.46
2019-04-07T12:39:38.960Z,19.33
2019-04-07T12:42:59.226Z,19.61
2019-04-07T12:46:21.391Z,19.59
2019-04-07T12:49:50.563Z,19.61
2019-04-07T12:53:16.437Z,19.51
2019-04-07T12:56:39.130Z,19.67
2019-04-07T13:00:14.666Z,19.54
2019-04-07T13:03:27.759Z,19.33
2019-04-07T13:06:44.230Z,19.09
2019-04-07T13:10:14.317Z,19.28
2019-04-07T13:13:35.267Z,19.33
2019-04-07T13:17:00.930Z,19.35
2019-04-07T13:20:21.279Z,18.85
2019-04-07T13:23:41.642Z,19.09
2019-04-07T13:27:16.946Z,19.39
2019-04-07T13:30:29.876Z,19.65
2019-04-07T13:33:43.107Z,19.90
2019-04-07T13:37:09.458Z,20.31
2019-04-07T13:40:27.473Z,20.07
2019-04-07T13:44:05.067Z,19.22
2019-04-07T13:47:20.945Z,18.87
2019-04-07T13:50:42.668Z,19.42
2019-04-07T13:53:59.642Z,19.53
2019-04-07T13:57:25.993Z,18.97
2019-04-07T14:01:00.844Z,18.65
2019-04-07T14:04:22.721Z,18.47
2019-04-07T14:07:49.171Z,18.31
2019-04-07T14:11:10.937Z,18.11
2019-04-07T14:14:37.228Z,18.03
2019-04-07T14:17:53.625Z,18.05
2019-04-07T14:21:19.433Z,17.87
2019-04-07T14:24:31.656Z,17.85
2019-04-07T14:27:45.056Z,17.89
2019-04-07T14:31:13.517Z,17.93
2019-04-07T14:34:37.873Z,18.24
2019-04-07T14:38:04.813Z,18.24
2019-04-07T14:41:26.932Z,18.14
2019-04-07T14:44:40.164Z,18.18
2019-04-07T14:48:07.453Z,17.90
2019-04-07T14:51:33.965Z,17.96
2019-04-07T14:54:57.127Z,18.04
2019-04-07T14:58:18.702Z,17.93
2019-04-07T15:01:44.710Z,17.93
2019-04-07T15:05:07.711Z,17.96
2019-04-07T15:08:21.725Z,17.92
2019-04-07T15:11:57.646Z,17.85
2019-04-07T15:15:05.554Z,17.67
2019-04-07T15:18:07.293Z,17.69
2019-04-07T15:21:11.133Z,17.56
2019-04-07T15:24:15.343Z,17.67
2019-04-07T15:27:21.940Z,17.48
2019-04-07T15:30:25.490Z,17.41
2019-04-07T15:33:33.611Z,17.36
2019-04-07T15:36:36.406Z,17.38
2019-04-07T15:39:40.531Z,17.30
2019-04-07T15:42:50.049Z,17.27
2019-04-07T15:45:50.485Z,17.23
2019-04-07T15:48:56.097Z,17.26
2019-04-07T15:52:00.547Z,17.40
2019-04-07T15:55:06.612Z,17.35
2019-04-07T15:58:10.714Z,17.33
2019-04-07T16:01:15.023Z,17.41
2019-04-07T16:04:25.182Z,17.49
2019-04-07T16:07:24.657Z,17.49
2019-04-07T16:10:29.104Z,17.42
2019-04-07T16:13:33.762Z,17.51
2019-04-07T16:16:38.314Z,17.46
2019-04-07T16:19:44.397Z,17.45
2019-04-07T16:22:50.449Z,17.37
2019-04-07T16:25:57.515Z,17.30
2019-04-07T16:28:59.776Z,17.32
2019-04-07T16:32:03.836Z,17.33
2019-04-07T16:35:10.430Z,17.37
2019-04-07T16:38:14.157Z,17.39
2019-04-07T16:41:18.557Z,17.43
2019-04-07T16:44:23.347Z,17.46
2019-04-07T16:47:33.685Z,17.49
2019-04-07T16:50:32.783Z,17.53
2019-04-07T16:53:39.673Z,17.45
2019-04-07T16:56:44.029Z,17.43
2019-04-07T16:59:48.143Z,17.38
2019-04-07T17:02:52.124Z,17.25
2019-04-07T17:05:59.329Z,17.19
2019-04-07T17:09:05.535Z,17.21
2019-04-07T17:12:10.944Z,17.11
2019-04-07T17:15:15.677Z,17.07
2019-04-07T17:18:37.365Z,17.03
2019-04-07T17:21:42.837Z,16.96
2019-04-07T17:24:47.832Z,16.93
2019-04-07T17:27:53.050Z,16.90
2019-04-07T17:30:58.969Z,16.81
2019-04-07T17:34:04.919Z,16.86
2019-04-07T17:37:09.615Z,16.80
2019-04-07T17:40:15.816Z,16.67
2019-04-07T17:43:51.472Z,16.64
2019-04-07T17:47:02.231Z,16.56
2019-04-07T17:50:31.969Z,16.56
2019-04-07T17:54:04.721Z,16.47
2019-04-07T17:57:21.398Z,16.47
2019-04-07T18:00:35.110Z,16.36
2019-04-07T18:04:11.374Z,16.32
2019-04-07T18:07:36.168Z,16.25
2019-04-07T18:10:50.721Z,16.23
2019-04-07T18:14:24.493Z,16.23
2019-04-07T18:17:48.521Z,16.19
2019-04-07T18:21:01.869Z,16.14
2019-04-07T18:24:30.549Z,16.07
2019-04-07T18:27:47.938Z,16.03
2019-04-07T18:31:18.444Z,16.08
2019-04-07T18:34:58.657Z,16.03
2019-04-07T18:38:18.500Z,15.96
2019-04-07T18:41:41.544Z,15.81
2019-04-07T18:45:02.495Z,15.81
2019-04-07T18:48:34.931Z,15.61
2019-04-07T18:52:01.546Z,15.50
2019-04-07T18:55:26.121Z,15.33
2019-04-07T18:58:50.766Z,15.29
2019-04-07T19:02:18.240Z,15.23
2019-04-07T19:05:31.585Z,15.10
2019-04-07T19:08:58.299Z,15.00
2019-04-07T19:12:13.391Z,14.93
2019-04-07T19:15:25.549Z,14.94
2019-04-07T19:18:51.949Z,14.80
2019-04-07T19:22:07.100Z,14.74
2019-04-07T19:25:42.611Z,14.66
2019-04-07T19:29:09.266Z,14.62
2019-04-07T19:32:27.829Z,14.56
2019-04-07T19:36:00.191Z,14.52
2019-04-07T19:39:24.974Z,14.42
2019-04-07T19:43:01.669Z,14.36
2019-04-07T19:46:33.746Z,14.35
2019-04-07T19:49:55.695Z,14.29
2019-04-07T19:53:16.793Z,14.29
2019-04-07T19:56:29.482Z,14.17
2019-04-07T19:59:55.424Z,14.03
2019-04-07T20:03:17.912Z,14.00
2019-04-07T20:06:47.072Z,13.93
2019-04-07T20:10:06.895Z,13.93
2019-04-07T20:13:39.551Z,13.94
2019-04-07T20:16:49.168Z,13.88
2019-04-07T20:20:10.005Z,13.77
2019-04-07T20:23:33.056Z,13.63
2019-04-07T20:26:54.264Z,13.49
2019-04-07T20:30:17.591Z,13.50
2019-04-07T20:33:40.312Z,13.42
2019-04-07T20:37:06.151Z,13.38
2019-04-07T20:40:22.355Z,13.38
2019-04-07T20:43:46.426Z,13.29
2019-04-07T20:47:08.219Z,13.09
2019-04-07T20:50:26.209Z,13.03
2019-04-07T20:53:55.664Z,13.07
2019-04-07T20:57:33.057Z,12.90
2019-04-07T21:01:00.631Z,12.79
2019-04-07T21:04:12.804Z,12.74
2019-04-07T21:07:31.363Z,12.66
2019-04-07T21:11:06.379Z,12.61
2019-04-07T21:14:28.982Z,12.62
2019-04-07T21:17:52.326Z,12.46
2019-04-07T21:21:12.430Z,12.50
2019-04-07T21:24:35.338Z,12.39
2019-04-07T21:27:53.210Z,12.41
2019-04-07T21:31:26.126Z,12.39
2019-04-07T21:34:47.917Z,12.33
2019-04-07T21:38:02.552Z,12.33
2019-04-07T21:41:24.353Z,12.32
2019-04-07T21:44:50.658Z,12.33
2019-04-07T21:48:03.728Z,12.27
2019-04-07T21:51:22.137Z,12.21
2019-04-07T21:54:48.265Z,12.25
2019-04-07T21:58:17.075Z,12.23
2019-04-07T22:01:39.859Z,12.20
2019-04-07T22:05:09.464Z,12.24
2019-04-07T22:08:20.003Z,12.24
2019-04-07T22:11:28.119Z,12.20
2019-04-07T22:14:31.072Z,12.20
2019-04-07T22:17:37.059Z,12.26
2019-04-07T22:20:40.576Z,12.24
2019-04-07T22:23:44.367Z,12.17
2019-04-07T22:26:50.146Z,12.17
2019-04-07T22:29:54.089Z,12.10
2019-04-07T22:32:58.128Z,12.10
2019-04-07T22:36:01.973Z,12.07
2019-04-07T22:39:07.834Z,12.05
2019-04-07T22:42:14.543Z,11.93
2019-04-07T22:45:17.896Z,11.93
2019-04-07T22:48:25.279Z,11.94
2019-04-07T22:51:28.547Z,11.85
2019-04-07T22:54:32.871Z,11.77
2019-04-07T22:57:38.322Z,11.82
2019-04-07T23:00:42.517Z,11.74
2019-04-07T23:03:46.279Z,11.66
2019-04-07T23:06:50.436Z,11.63
2019-04-07T23:09:54.310Z,11.60
2019-04-07T23:12:59.399Z,11.54
2019-04-07T23:16:12.545Z,11.65
2019-04-07T23:19:09.552Z,11.70
2019-04-07T23:22:13.895Z,11.66
2019-04-07T23:25:17.940Z,11.68
2019-04-07T23:28:21.745Z,11.69
2019-04-07T23:31:26.483Z,11.66
2019-04-07T23:34:31.108Z,11.74
2019-04-07T23:37:35.718Z,11.65
2019-04-07T23:40:40.101Z,11.56
2019-04-07T23:43:44.491Z,11.57
2019-04-07T23:46:49.773Z,11.62
2019-04-07T23:49:54.450Z,11.66
2019-04-07T23:53:03.502Z,11.60
2019-04-07T23:56:07.941Z,11.54
2019-04-07T23:59:13.056Z,11.60
